Coachella, CA (92236)

6:54 PM PDT on April 29, 2017 (GMT -0700)
ME3298 | | Change Station

Elev 26 ft 33.70 °N, 116.22 °W | Updated 29 minutes ago

Clear
Clear
86.0 °F
Feels Like 83 °F
N
5.0
Wind Variable Wind from North
Gusts 9.0 mph

Today
High -- | Low -- °F
--% Chance of Precip.
Yesterday
High -- | Low -- °F
Precip. -- in
Pressure 29.92 in
Visibility 10.0 miles
Clouds Clear
Heat Index 83 °F
Dew Point 11 °F
Humidity 6%
Rainfall 0.00 in
Snow Depth Not available.
5:57 AM 7:26 PM
Waxing Crescent, 18% visible
METAR KTRM 300052Z AUTO 01009KT 10SM CLR 31/M15 A2991 RMK AO2 SLP130 T03061150
Pressure 29.92 in
Visibility 10.0 miles
Clouds Clear
Heat Index 83 °F
Dew Point 11 °F
Humidity 6%
Rainfall 0.00 in
Snow Depth Not available.
5:57 AM 7:26 PM
Waxing Crescent, 18% visible
METAR KTRM 300052Z AUTO 01009KT 10SM CLR 31/M15 A2991 RMK AO2 SLP130 T03061150

Get Severe Weather Alerts

Thanks for signing up!

Be on the lookout for a verification email in your inbox.

You'll start receiving the daily forecast at 8 AM.

×

10-Day Weather Forecast

Almanac

Astronomy

Apr. 29, 2017 Rise Set
Actual Time
Civil Twilight
Nautical Twilight
Astronomical Twilight
Moon
Length of Visible Light
Length of Day
Tomorrow will be .
, % of the Moon is Illuminated

Today's Extremes

State Highs State Lows

Community

WunderPhotos

WunderBlog® & News

Nearby

Air Quality

  Air Quality AQ Index Pollutant
Not available.

Snow Depth

Station Depth Elevation

Earthquake Activity

City Distance Mag. Time & Date
Minimum magnitude displayed is 2.5.

Coastal Water Temperatures

Place Temperature

Stations

Nearby Weather Stations

Station Location Temp. Windchill Dew Point Humidity Wind Precip. Elev Updated Type
                   

Watches & Warnings

There are currently no watches in effect.